createdAt,value
2022-10-11T00:00:17.355Z,18.38
2022-10-11T00:02:44.514Z,20.13
2022-10-11T00:05:11.967Z,20.15
2022-10-11T00:07:39.272Z,20.17
2022-10-11T00:10:07.564Z,22.23
2022-10-11T00:12:35.613Z,19.38
2022-10-11T00:15:07.366Z,24.55
2022-10-11T00:17:34.886Z,27.17
2022-10-11T00:20:02.009Z,24.77
2022-10-11T00:22:29.129Z,27.13
2022-10-11T00:24:58.664Z,30.02
2022-10-11T00:27:25.760Z,28.45
2022-10-11T00:29:52.912Z,22.75
2022-10-11T00:32:20.081Z,23.20
2022-10-11T00:34:47.227Z,22.65
2022-10-11T00:37:14.336Z,20.75
2022-10-11T00:39:41.394Z,21.30
2022-10-11T00:42:13.904Z,19.30
2022-10-11T00:44:46.922Z,18.98
2022-10-11T00:47:20.340Z,17.63
2022-10-11T00:49:50.068Z,15.38
2022-10-11T00:52:31.771Z,11.93
2022-10-11T00:55:07.813Z,11.25
2022-10-11T00:57:39.961Z,10.18
2022-10-11T01:00:10.043Z,10.23
2022-10-11T01:02:37.985Z,9.68
2022-10-11T01:05:28.175Z,9.38
2022-10-11T01:07:55.741Z,9.23
2022-10-11T01:10:22.942Z,8.65
2022-10-11T01:13:02.058Z,8.80
2022-10-11T01:15:40.139Z,8.60
2022-10-11T01:18:27.701Z,8.50
2022-10-11T01:21:00.436Z,7.82
2022-10-11T01:24:14.694Z,8.20
2022-10-11T01:26:55.862Z,7.38
2022-10-11T01:29:53.002Z,8.68
2022-10-11T01:32:27.488Z,6.93
2022-10-11T01:35:02.084Z,7.00
2022-10-11T01:37:44.983Z,7.75
2022-10-11T01:40:32.333Z,6.82
2022-10-11T01:43:00.191Z,7.57
2022-10-11T01:45:27.480Z,6.80
2022-10-11T01:48:10.037Z,7.00
2022-10-11T01:50:51.815Z,5.93
2022-10-11T01:53:56.349Z,5.95
2022-10-11T01:56:54.522Z,5.20
2022-10-11T01:59:52.497Z,5.55
2022-10-11T02:02:48.238Z,5.88
2022-10-11T02:05:37.565Z,6.03
2022-10-11T02:08:33.767Z,5.38
2022-10-11T02:11:24.102Z,5.22
2022-10-11T02:13:55.932Z,4.68
2022-10-11T02:16:27.593Z,5.57
2022-10-11T02:18:56.713Z,4.50
2022-10-11T02:21:24.744Z,4.20
2022-10-11T02:23:58.824Z,5.03
2022-10-11T02:26:30.495Z,4.78
2022-10-11T02:29:01.272Z,4.70
2022-10-11T02:31:32.915Z,5.90
2022-10-11T02:34:12.180Z,4.38
2022-10-11T02:36:46.021Z,3.92
2022-10-11T02:39:21.571Z,3.42
2022-10-11T02:41:51.911Z,3.08
2022-10-11T02:44:27.031Z,4.85
2022-10-11T02:46:54.772Z,4.47
2022-10-11T02:49:22.005Z,3.28
2022-10-11T02:51:49.102Z,3.65
2022-10-11T02:54:16.464Z,3.40
2022-10-11T02:56:43.591Z,4.13
2022-10-11T02:59:10.664Z,2.90
2022-10-11T03:01:37.874Z,3.47
2022-10-11T03:04:05.106Z,2.55
2022-10-11T03:06:32.207Z,3.50
2022-10-11T03:08:59.255Z,3.67
2022-10-11T03:11:26.361Z,3.38
2022-10-11T03:13:53.639Z,3.75
2022-10-11T03:16:21.046Z,3.38
2022-10-11T03:18:48.189Z,3.35
2022-10-11T03:21:15.359Z,2.70
2022-10-11T03:23:42.617Z,3.17
2022-10-11T03:26:09.753Z,6.10
2022-10-11T03:28:36.845Z,2.88
2022-10-11T03:31:04.005Z,2.53
2022-10-11T03:33:31.097Z,2.65
2022-10-11T03:35:58.250Z,2.80
2022-10-11T03:38:25.294Z,2.53
2022-10-11T03:40:52.389Z,2.58
2022-10-11T03:43:19.571Z,2.00
2022-10-11T03:45:46.751Z,2.38
2022-10-11T03:48:13.915Z,2.00
2022-10-11T03:50:41.030Z,3.10
2022-10-11T03:53:08.801Z,2.42
2022-10-11T03:55:39.192Z,3.08
2022-10-11T03:58:06.318Z,2.70
2022-10-11T04:00:34.716Z,2.72
2022-10-11T04:03:03.857Z,2.40
2022-10-11T04:05:31.295Z,2.15
2022-10-11T04:07:58.379Z,2.10
2022-10-11T04:10:25.450Z,1.95
2022-10-11T04:12:52.500Z,2.80
2022-10-11T04:15:19.667Z,3.03
2022-10-11T04:17:46.737Z,1.80
2022-10-11T04:20:14.038Z,3.03
2022-10-11T04:22:41.147Z,4.68
2022-10-11T04:25:09.108Z,2.25
2022-10-11T04:27:36.234Z,2.10
2022-10-11T04:30:04.302Z,1.67
2022-10-11T04:32:31.393Z,2.50
2022-10-11T04:34:58.446Z,2.35
2022-10-11T04:37:25.548Z,2.75
2022-10-11T04:39:52.595Z,2.97
2022-10-11T04:42:20.370Z,2.30
2022-10-11T04:44:47.511Z,2.63
2022-10-11T04:47:14.671Z,3.35
2022-10-11T04:49:41.769Z,2.78
2022-10-11T04:52:08.989Z,2.05
2022-10-11T04:54:36.051Z,2.03
2022-10-11T04:57:03.379Z,2.67
2022-10-11T04:59:30.931Z,2.53
2022-10-11T05:01:58.326Z,2.30
2022-10-11T05:04:25.489Z,2.20
2022-10-11T05:06:52.557Z,2.30
2022-10-11T05:09:19.656Z,2.58
2022-10-11T05:11:46.791Z,3.10
2022-10-11T05:14:14.098Z,3.67
2022-10-11T05:16:41.232Z,2.83
2022-10-11T05:19:08.488Z,1.90
2022-10-11T05:21:35.668Z,2.25
2022-10-11T05:24:02.753Z,3.72
2022-10-11T05:26:29.876Z,5.18
2022-10-11T05:28:57.066Z,2.47
2022-10-11T05:31:24.242Z,1.83
2022-10-11T05:33:51.305Z,1.58
2022-10-11T05:36:18.528Z,1.92
2022-10-11T05:38:45.630Z,2.42
2022-10-11T05:41:16.621Z,1.73
2022-10-11T05:43:44.720Z,2.38
2022-10-11T05:46:12.288Z,1.98
2022-10-11T05:48:39.972Z,5.30
2022-10-11T05:51:09.786Z,2.45
2022-10-11T05:53:37.839Z,1.70
2022-10-11T05:56:05.780Z,2.67
2022-10-11T05:58:33.156Z,2.15
2022-10-11T06:01:00.308Z,2.55
2022-10-11T06:03:28.023Z,1.58
2022-10-11T06:05:57.181Z,1.73
2022-10-11T06:08:30.680Z,2.20
2022-10-11T06:10:58.271Z,1.92
2022-10-11T06:13:25.357Z,2.00
2022-10-11T06:15:52.387Z,2.47
2022-10-11T06:18:19.525Z,2.72
2022-10-11T06:20:46.578Z,2.63
2022-10-11T06:23:13.645Z,2.75
2022-10-11T06:25:40.786Z,2.80
2022-10-11T06:28:07.953Z,3.47
2022-10-11T06:30:35.049Z,3.30
2022-10-11T06:33:04.804Z,2.60
2022-10-11T06:35:32.227Z,3.75
2022-10-11T06:37:59.281Z,2.95
2022-10-11T06:40:26.461Z,3.33
2022-10-11T06:42:53.517Z,4.07
2022-10-11T06:45:20.579Z,5.05
2022-10-11T06:47:47.639Z,3.85
2022-10-11T06:50:14.729Z,3.15
2022-10-11T06:52:41.757Z,3.00
2022-10-11T06:55:09.107Z,2.95
2022-10-11T06:57:36.233Z,4.07
2022-10-11T07:00:12.389Z,3.28
2022-10-11T07:02:39.953Z,4.22
2022-10-11T07:05:08.369Z,2.60
2022-10-11T07:07:35.497Z,6.18
2022-10-11T07:10:02.534Z,4.53
2022-10-11T07:12:29.718Z,3.70
2022-10-11T07:14:56.776Z,4.28
2022-10-11T07:17:23.895Z,3.92
2022-10-11T07:19:50.985Z,4.45
2022-10-11T07:22:18.081Z,3.90
2022-10-11T07:24:45.159Z,3.88
2022-10-11T07:27:12.293Z,3.78
2022-10-11T07:29:39.799Z,3.58
2022-10-11T07:32:06.948Z,2.88
2022-10-11T07:34:34.055Z,3.88
2022-10-11T07:37:01.142Z,3.88
2022-10-11T07:39:28.400Z,3.83
2022-10-11T07:41:55.472Z,3.95
2022-10-11T07:44:22.501Z,4.72
2022-10-11T07:46:49.581Z,3.90
2022-10-11T07:49:16.632Z,3.78
2022-10-11T07:51:43.781Z,5.15
2022-10-11T07:54:10.805Z,3.47
2022-10-11T07:56:38.244Z,3.25
2022-10-11T07:59:06.308Z,3.47
2022-10-11T08:01:33.768Z,4.13
2022-10-11T08:04:01.130Z,3.35
2022-10-11T08:06:32.256Z,3.90
2022-10-11T08:09:00.835Z,4.07
2022-10-11T08:11:31.470Z,3.83
2022-10-11T08:13:59.140Z,4.13
2022-10-11T08:16:26.567Z,3.13
2022-10-11T08:18:56.717Z,3.40
2022-10-11T08:21:24.645Z,2.97
2022-10-11T08:23:51.711Z,3.85
2022-10-11T08:26:19.049Z,3.25
2022-10-11T08:28:46.145Z,2.95
2022-10-11T08:31:14.859Z,2.30
2022-10-11T08:33:41.904Z,2.40
2022-10-11T08:36:10.430Z,3.05
2022-10-11T08:38:38.788Z,2.50
2022-10-11T08:41:27.038Z,2.90
2022-10-11T08:43:57.926Z,2.88
2022-10-11T08:46:30.802Z,3.50
2022-10-11T08:48:58.187Z,2.72
2022-10-11T08:51:33.638Z,2.60
2022-10-11T08:54:08.065Z,2.92
2022-10-11T08:56:38.699Z,3.17
2022-10-11T08:59:15.370Z,2.63
2022-10-11T09:02:03.317Z,3.28
2022-10-11T09:04:32.208Z,2.88
2022-10-11T09:07:07.379Z,2.95
2022-10-11T09:09:56.534Z,2.67
2022-10-11T09:13:06.304Z,2.55
2022-10-11T09:16:16.309Z,3.08
2022-10-11T09:19:07.999Z,2.42
2022-10-11T09:21:45.364Z,2.35
2022-10-11T09:24:15.425Z,2.13
2022-10-11T09:27:25.911Z,3.17
2022-10-11T09:30:05.160Z,2.40
2022-10-11T09:32:38.136Z,1.80
2022-10-11T09:35:15.392Z,2.10
2022-10-11T09:38:01.944Z,1.70
2022-10-11T09:41:00.382Z,2.53
2022-10-11T09:43:27.626Z,2.03
2022-10-11T09:45:54.680Z,1.88
2022-10-11T09:48:38.715Z,1.92
2022-10-11T09:51:13.159Z,2.08
2022-10-11T09:53:52.642Z,1.35
2022-10-11T09:58:47.201Z,1.42
2022-10-11T10:01:25.550Z,1.50
2022-10-11T10:04:07.173Z,1.38
2022-10-11T10:06:34.393Z,1.50
2022-10-11T10:09:21.404Z,1.17
2022-10-11T10:11:48.663Z,1.20
2022-10-11T10:14:25.207Z,1.77
2022-10-11T10:17:16.435Z,1.83
2022-10-11T10:19:53.252Z,1.80
2022-10-11T10:22:27.338Z,1.60
2022-10-11T10:24:55.785Z,2.45
2022-10-11T10:27:26.996Z,1.73
2022-10-11T10:30:09.131Z,2.20
2022-10-11T10:32:44.942Z,1.30
2022-10-11T10:35:33.648Z,1.75
2022-10-11T10:38:08.120Z,1.40
2022-10-11T10:40:43.734Z,2.47
2022-10-11T10:43:24.633Z,2.42
2022-10-11T10:46:34.072Z,1.55
2022-10-11T10:52:33.205Z,1.52
2022-10-11T10:55:15.643Z,1.55
2022-10-11T10:57:54.588Z,1.42
2022-10-11T11:00:23.635Z,2.97
2022-10-11T11:03:00.629Z,2.08
2022-10-11T11:05:39.931Z,1.58
2022-10-11T11:08:16.893Z,1.50
2022-10-11T11:10:58.676Z,2.60
2022-10-11T11:13:45.844Z,2.30
2022-10-11T11:16:30.975Z,1.83
2022-10-11T11:19:16.125Z,1.08
2022-10-11T11:22:05.985Z,1.30
2022-10-11T11:24:57.964Z,1.30
2022-10-11T11:27:48.451Z,1.30
2022-10-11T11:30:41.190Z,1.27
2022-10-11T11:33:48.798Z,1.25
2022-10-11T11:36:33.345Z,2.15
2022-10-11T11:39:04.950Z,2.03
2022-10-11T11:41:45.660Z,1.50
2022-10-11T11:44:28.222Z,1.70
2022-10-11T11:47:03.033Z,2.13
2022-10-11T11:49:36.281Z,2.00
2022-10-11T11:52:06.666Z,2.72
2022-10-11T11:54:50.437Z,1.52
2022-10-11T11:57:32.496Z,1.88
2022-10-11T12:00:06.212Z,2.38
2022-10-11T12:02:57.150Z,1.30
2022-10-11T12:05:36.070Z,1.80
2022-10-11T12:08:27.513Z,1.90
2022-10-11T12:10:59.709Z,1.20
2022-10-11T12:13:32.138Z,2.20
2022-10-11T12:16:12.937Z,1.95
2022-10-11T12:18:51.795Z,1.80
2022-10-11T12:21:35.695Z,1.85
2022-10-11T12:24:23.566Z,2.03
2022-10-11T12:27:01.176Z,1.42
2022-10-11T12:29:42.820Z,1.70
2022-10-11T12:32:11.105Z,1.83
2022-10-11T12:34:43.732Z,1.02
2022-10-11T12:37:19.645Z,1.38
2022-10-11T12:39:46.751Z,1.55
2022-10-11T12:42:32.055Z,1.38
2022-10-11T12:45:12.016Z,1.60
2022-10-11T12:48:05.419Z,1.73
2022-10-11T12:50:51.709Z,1.40
2022-10-11T12:53:39.541Z,1.52
2022-10-11T12:56:36.255Z,2.00
2022-10-11T12:59:06.149Z,1.42
2022-10-11T13:01:47.503Z,0.85
2022-10-11T13:04:18.821Z,1.85
2022-10-11T13:06:47.263Z,1.48
2022-10-11T13:09:31.564Z,1.35
2022-10-11T13:12:21.438Z,2.45
2022-10-11T13:15:01.120Z,1.75
2022-10-11T13:17:38.389Z,3.05
2022-10-11T13:20:28.635Z,2.30
2022-10-11T13:22:56.616Z,1.35
2022-10-11T13:25:26.905Z,1.70
2022-10-11T13:27:57.000Z,1.00
2022-10-11T13:30:28.444Z,2.00
2022-10-11T13:32:56.115Z,2.28
2022-10-11T13:35:37.303Z,2.00
2022-10-11T13:38:08.219Z,1.52
2022-10-11T13:40:35.619Z,1.85
2022-10-11T13:43:05.579Z,2.50
2022-10-11T13:45:35.771Z,1.63
2022-10-11T13:48:03.152Z,2.30
2022-10-11T13:50:33.450Z,1.30
2022-10-11T13:53:09.365Z,1.70
2022-10-11T13:55:47.470Z,2.17
2022-10-11T13:58:29.990Z,1.38
2022-10-11T14:01:03.938Z,2.60
2022-10-11T14:03:53.368Z,2.35
2022-10-11T14:06:20.744Z,1.73
2022-10-11T14:08:51.935Z,1.48
2022-10-11T14:11:36.519Z,2.08
2022-10-11T14:14:29.962Z,2.63
2022-10-11T14:17:04.625Z,2.10
2022-10-11T14:19:31.891Z,2.70
2022-10-11T14:21:59.019Z,1.83
2022-10-11T14:24:26.210Z,2.83
2022-10-11T14:26:55.830Z,2.42
2022-10-11T14:29:35.149Z,2.00
2022-10-11T14:32:04.623Z,2.40
2022-10-11T14:34:34.383Z,2.47
2022-10-11T14:37:01.760Z,2.92
2022-10-11T14:39:31.769Z,2.08
2022-10-11T14:41:59.483Z,1.58
2022-10-11T14:44:26.637Z,1.98
2022-10-11T14:46:54.830Z,1.63
2022-10-11T14:49:26.494Z,1.70
2022-10-11T14:51:55.402Z,1.80
2022-10-11T14:54:24.852Z,2.38
2022-10-11T14:56:53.826Z,2.17
2022-10-11T14:59:24.091Z,2.05
2022-10-11T15:01:53.803Z,1.80
2022-10-11T15:04:22.077Z,2.00
2022-10-11T15:06:50.153Z,1.73
2022-10-11T15:09:20.630Z,2.72
2022-10-11T15:11:49.837Z,2.20
2022-10-11T15:16:44.184Z,2.60
2022-10-11T15:19:20.337Z,2.65
2022-10-11T15:21:47.660Z,2.72
2022-10-11T15:24:14.966Z,2.78
2022-10-11T15:26:42.253Z,2.90
2022-10-11T15:29:11.626Z,2.85
2022-10-11T15:31:39.350Z,2.70
2022-10-11T15:34:06.405Z,3.10
2022-10-11T15:36:33.494Z,2.78
2022-10-11T15:39:01.638Z,3.17
2022-10-11T15:41:28.724Z,4.30
2022-10-11T15:43:55.795Z,4.75
2022-10-11T15:46:23.061Z,4.70
2022-10-11T15:48:51.405Z,4.30
2022-10-11T15:51:18.720Z,4.57
2022-10-11T15:53:46.229Z,5.18
2022-10-11T15:56:16.764Z,5.05
2022-10-11T15:58:44.140Z,5.35
2022-10-11T16:01:17.734Z,4.57
2022-10-11T16:03:49.190Z,6.13
2022-10-11T16:06:17.502Z,6.72
2022-10-11T16:08:45.063Z,5.20
2022-10-11T16:11:12.570Z,4.35
2022-10-11T16:13:39.709Z,3.72
2022-10-11T16:16:09.555Z,1.00
2022-10-11T16:18:37.081Z,1.45
2022-10-11T16:21:09.620Z,1.35
2022-10-11T16:23:37.702Z,1.20
2022-10-11T16:26:07.946Z,1.10
2022-10-11T16:28:35.613Z,1.10
2022-10-11T16:31:18.003Z,1.20
2022-10-11T16:33:48.220Z,1.25
2022-10-11T16:36:40.182Z,1.45
2022-10-11T16:39:12.183Z,1.75
2022-10-11T16:41:39.604Z,1.65
2022-10-11T16:44:07.016Z,1.27
2022-10-11T16:46:34.616Z,1.17
2022-10-11T16:49:01.939Z,1.40
2022-10-11T16:51:29.295Z,1.05
2022-10-11T16:53:56.469Z,1.20
2022-10-11T16:56:25.010Z,2.75
2022-10-11T16:58:53.343Z,2.00
2022-10-11T17:01:20.979Z,1.80
2022-10-11T17:03:49.804Z,1.38
2022-10-11T17:06:17.672Z,1.75
2022-10-11T17:08:44.778Z,1.23
2022-10-11T17:11:11.863Z,1.33
2022-10-11T17:13:38.925Z,1.40
2022-10-11T17:16:06.705Z,1.50
2022-10-11T17:18:34.060Z,0.90
2022-10-11T17:21:10.716Z,1.50
2022-10-11T17:23:37.909Z,1.10
2022-10-11T17:26:10.979Z,1.33
2022-10-11T17:28:39.030Z,1.10
2022-10-11T17:31:06.793Z,1.30
2022-10-11T17:33:34.122Z,1.15
2022-10-11T17:36:01.964Z,2.45
2022-10-11T17:38:29.211Z,1.10
2022-10-11T17:41:05.724Z,1.10
2022-10-11T17:43:33.392Z,2.10
2022-10-11T17:46:06.742Z,1.02
2022-10-11T17:48:36.948Z,1.10
2022-10-11T17:51:16.341Z,1.70
2022-10-11T17:56:16.260Z,1.17
2022-10-11T17:58:43.476Z,1.60
2022-10-11T18:01:14.270Z,1.23
2022-10-11T18:03:42.534Z,1.00
2022-10-11T18:06:13.169Z,1.10
2022-10-11T18:08:40.976Z,0.95
2022-10-11T18:11:13.396Z,1.33
2022-10-11T18:13:45.581Z,1.60
2022-10-11T18:16:15.216Z,1.05
2022-10-11T18:18:42.760Z,1.60
2022-10-11T18:21:10.613Z,1.05
2022-10-11T18:23:38.252Z,1.23
2022-10-11T18:26:16.218Z,1.42
2022-10-11T18:28:43.868Z,0.93
2022-10-11T18:31:19.243Z,0.82
2022-10-11T18:33:48.119Z,1.33
2022-10-11T18:36:17.463Z,0.97
2022-10-11T18:38:49.349Z,1.48
2022-10-11T18:41:19.287Z,1.50
2022-10-11T18:43:54.751Z,1.48
2022-10-11T18:46:23.044Z,1.00
2022-10-11T18:48:52.617Z,1.00
2022-10-11T18:51:38.730Z,0.98
2022-10-11T18:54:07.517Z,1.35
2022-10-11T18:56:36.381Z,1.27
2022-10-11T18:59:04.887Z,1.52
2022-10-11T19:01:41.521Z,1.40
2022-10-11T19:04:10.301Z,1.05
2022-10-11T19:06:41.081Z,1.00
2022-10-11T19:09:22.941Z,1.25
2022-10-11T19:11:51.322Z,1.50
2022-10-11T19:14:21.093Z,1.42
2022-10-11T19:16:51.582Z,1.08
2022-10-11T19:19:21.197Z,1.00
2022-10-11T19:24:18.019Z,1.50
2022-10-11T19:26:45.890Z,1.38
2022-10-11T19:29:16.165Z,1.20
2022-10-11T19:31:49.076Z,1.52
2022-10-11T19:34:16.996Z,0.82
2022-10-11T19:36:44.434Z,0.88
2022-10-11T19:39:15.473Z,1.30
2022-10-11T19:41:43.892Z,1.15
2022-10-11T19:44:12.857Z,1.70
2022-10-11T19:46:57.554Z,1.80
2022-10-11T19:49:27.129Z,1.55
2022-10-11T19:51:55.365Z,1.30
2022-10-11T19:54:23.243Z,1.33
2022-10-11T19:56:50.568Z,1.98
2022-10-11T19:59:17.997Z,1.23
2022-10-11T20:01:51.047Z,1.20
2022-10-11T20:04:39.961Z,1.35
2022-10-11T20:07:07.379Z,1.08
2022-10-11T20:09:34.518Z,1.70
2022-10-11T20:12:01.639Z,2.08
2022-10-11T20:14:28.746Z,1.35
2022-10-11T20:16:55.865Z,1.40
2022-10-11T20:19:29.301Z,1.10
2022-10-11T20:21:57.949Z,1.48
2022-10-11T20:24:27.222Z,1.38
2022-10-11T20:27:00.612Z,3.13
2022-10-11T20:29:27.731Z,1.63
2022-10-11T20:31:56.208Z,0.82
2022-10-11T20:34:23.416Z,1.40
2022-10-11T20:36:50.467Z,1.15
2022-10-11T20:39:17.958Z,1.30
2022-10-11T20:41:45.079Z,0.90
2022-10-11T20:44:13.139Z,1.30
2022-10-11T20:46:40.323Z,1.17
2022-10-11T20:49:10.303Z,1.42
2022-10-11T20:51:39.553Z,1.48
2022-10-11T20:54:06.953Z,1.40
2022-10-11T20:56:34.395Z,0.82
2022-10-11T20:59:01.685Z,1.25
2022-10-11T21:01:37.353Z,0.95
2022-10-11T21:04:05.740Z,1.13
2022-10-11T21:06:33.662Z,1.98
2022-10-11T21:09:00.932Z,1.77
2022-10-11T21:11:30.549Z,1.20
2022-10-11T21:13:59.656Z,1.15
2022-10-11T21:16:27.262Z,1.20
2022-10-11T21:18:56.317Z,1.25
2022-10-11T21:21:24.378Z,2.38
2022-10-11T21:23:59.506Z,1.35
2022-10-11T21:26:27.445Z,1.98
2022-10-11T21:28:54.772Z,1.85
2022-10-11T21:31:23.051Z,1.10
2022-10-11T21:33:50.675Z,1.02
2022-10-11T21:36:20.421Z,0.98
2022-10-11T21:38:48.084Z,1.50
2022-10-11T21:41:20.749Z,1.65
2022-10-11T21:43:48.275Z,1.75
2022-10-11T21:46:29.299Z,1.40
2022-10-11T21:49:09.512Z,1.63
2022-10-11T21:51:36.604Z,1.75
2022-10-11T21:54:03.905Z,1.20
2022-10-11T21:56:31.321Z,1.75
2022-10-11T21:58:58.493Z,1.65
2022-10-11T22:01:25.625Z,2.20
2022-10-11T22:03:53.857Z,1.42
2022-10-11T22:06:21.330Z,1.00
2022-10-11T22:08:49.904Z,1.60
2022-10-11T22:11:17.472Z,1.38
2022-10-11T22:13:44.776Z,1.50
2022-10-11T22:16:13.428Z,1.15
2022-10-11T22:18:41.403Z,1.40
2022-10-11T22:21:14.988Z,1.40
2022-10-11T22:23:44.030Z,1.13
2022-10-11T22:26:17.361Z,1.00
2022-10-11T22:28:46.461Z,1.00
2022-10-11T22:31:15.345Z,2.00
2022-10-11T22:36:19.306Z,1.70
2022-10-11T22:38:47.179Z,1.33
2022-10-11T22:41:14.364Z,1.30
2022-10-11T22:43:41.632Z,2.20
2022-10-11T22:46:09.360Z,1.00
2022-10-11T22:48:36.793Z,1.48
2022-10-11T22:51:03.919Z,1.13
2022-10-11T22:53:31.215Z,2.28
2022-10-11T22:55:59.563Z,1.17
2022-10-11T22:58:26.713Z,1.08
2022-10-11T23:00:53.793Z,1.35
2022-10-11T23:03:20.914Z,1.15
2022-10-11T23:05:58.022Z,1.00
2022-10-11T23:08:25.535Z,1.35
2022-10-11T23:10:52.871Z,1.70
2022-10-11T23:13:20.298Z,1.42
2022-10-11T23:15:47.398Z,1.00
2022-10-11T23:18:17.656Z,1.25
2022-10-11T23:20:44.846Z,1.98
2022-10-11T23:23:11.959Z,1.30
2022-10-11T23:25:39.089Z,1.38
2022-10-11T23:28:06.134Z,1.77
2022-10-11T23:30:33.226Z,1.48
2022-10-11T23:33:00.359Z,1.10
2022-10-11T23:35:27.456Z,1.00
2022-10-11T23:37:54.849Z,1.20
2022-10-11T23:40:22.004Z,1.35
2022-10-11T23:42:49.033Z,1.10
2022-10-11T23:45:16.156Z,1.38
2022-10-11T23:47:43.207Z,1.33
2022-10-11T23:50:10.502Z,1.20
2022-10-11T23:52:37.553Z,1.30
2022-10-11T23:55:04.924Z,1.05
2022-10-11T23:57:31.964Z,1.40
2022-10-11T23:59:59.126Z,1.35
